Time;durP1;ratioP1;P1;durP2;ratioP2;P2;SDS_P1;SDS_P2;PMS_P1;PMS_P2;Temp;Humidity;BMP_temperature;BMP_pressure;BME280_temperature;BME280_humidity;BME280_pressure;Samples;Min_cycle;Max_cycle;Signal;HPM_P1;HPM_P2
2022/10/28 00:00:29;;;;;;;19.40;11.93;;;;;;;13.33;100.00;101063.16;5046512;28;20044;-73
2022/10/28 00:02:59;;;;;;;22.08;12.82;;;;;;;13.33;100.00;101056.97;5043756;28;20060;-73
2022/10/28 00:05:27;;;;;;;17.33;12.18;;;;;;;13.34;100.00;101053.38;5039541;28;20045;-71
2022/10/28 00:07:54;;;;;;;19.17;12.25;;;;;;;13.31;100.00;101051.72;5027515;28;20581;-73
2022/10/28 00:10:21;;;;;;;19.60;11.73;;;;;;;13.28;100.00;101064.28;5040083;28;20049;-72
2022/10/28 00:12:48;;;;;;;23.75;12.70;;;;;;;13.14;100.00;101053.41;5048362;28;20103;-72
2022/10/28 00:15:14;;;;;;;16.30;11.70;;;;;;;13.24;100.00;101070.69;5041343;28;20650;-72
2022/10/28 00:17:41;;;;;;;19.00;11.32;;;;;;;13.22;100.00;101061.94;5035611;28;20128;-71
2022/10/28 00:20:08;;;;;;;16.40;10.98;;;;;;;13.23;100.00;101071.63;5041961;28;20196;-72
2022/10/28 00:22:34;;;;;;;17.45;11.52;;;;;;;13.20;100.00;101064.66;5045211;28;20156;-72
2022/10/28 00:25:01;;;;;;;18.55;11.25;;;;;;;13.15;100.00;101069.34;5035452;28;20051;-73
2022/10/28 00:27:28;;;;;;;19.45;12.15;;;;;;;13.03;100.00;101053.06;5030215;28;20131;-72
2022/10/28 00:29:55;;;;;;;17.40;11.35;;;;;;;13.09;100.00;101060.72;5043982;28;20060;-74
2022/10/28 00:32:22;;;;;;;17.80;11.55;;;;;;;13.09;100.00;101060.72;5039520;28;20391;-72
2022/10/28 00:34:49;;;;;;;18.38;12.43;;;;;;;13.07;100.00;101060.81;5050712;28;20515;-72
2022/10/28 00:37:15;;;;;;;20.70;11.57;;;;;;;12.96;100.00;101048.03;5043038;28;20045;-71
2022/10/28 00:39:42;;;;;;;22.60;12.93;;;;;;;13.03;100.00;101079.66;5056339;28;20235;-72
2022/10/28 00:42:09;;;;;;;20.50;11.98;;;;;;;13.01;100.00;101079.72;5046912;28;20072;-72
2022/10/28 00:44:58;;;;;;;19.33;11.25;;;;;;;12.90;100.00;101056.28;5044356;28;20285;-72
2022/10/28 00:47:27;;;;;;;18.38;12.07;;;;;;;12.91;100.00;101046.50;5029653;28;20080;-72
2022/10/28 00:50:03;;;;;;;18.60;11.35;;;;;;;13.00;100.00;101054.94;5044165;28;20040;-72
2022/10/28 00:52:31;;;;;;;19.70;11.73;;;;;;;12.95;100.00;101064.03;5037789;28;20060;-71
2022/10/28 00:55:00;;;;;;;19.42;10.95;;;;;;;12.95;100.00;101075.53;5051217;28;20139;-72
2022/10/28 00:57:30;;;;;;;16.33;10.32;;;;;;;12.95;100.00;101067.56;5038724;28;20532;-73
2022/10/28 01:00:00;;;;;;;23.10;11.93;;;;;;;12.83;100.00;101048.66;5046129;28;20495;-73
2022/10/28 01:02:27;;;;;;;15.88;10.70;;;;;;;12.92;100.00;101051.75;5036857;28;20335;-73
2022/10/28 01:04:54;;;;;;;14.55;11.38;;;;;;;12.84;100.00;101037.97;5043535;28;20136;-72
2022/10/28 01:07:22;;;;;;;19.63;11.68;;;;;;;12.97;100.00;101047.09;5031909;28;20052;-72
2022/10/28 01:09:49;;;;;;;16.15;10.55;;;;;;;13.07;100.00;101049.31;5052960;28;20139;-72
2022/10/28 01:12:21;;;;;;;17.95;11.18;;;;;;;12.97;100.00;101028.47;5050013;28;20063;-72
2022/10/28 01:15:28;;;;;;;16.20;11.60;;;;;;;13.12;100.00;101050.81;5046321;28;20412;-73
2022/10/28 01:18:00;;;;;;;18.52;11.10;;;;;;;13.12;100.00;101049.97;5039500;28;20049;-72
2022/10/28 01:20:54;;;;;;;16.90;10.73;;;;;;;13.16;100.00;101043.59;5044409;28;20041;-72
2022/10/28 01:23:39;;;;;;;16.67;10.75;;;;;;;13.19;100.00;101043.47;5045340;28;20437;-71
2022/10/28 01:26:35;;;;;;;15.68;10.77;;;;;;;13.23;100.00;101027.25;5050703;28;20408;-72
2022/10/28 01:29:08;;;;;;;16.02;10.82;;;;;;;13.20;100.00;101006.16;5039013;28;20463;-72
2022/10/28 01:31:43;;;;;;;16.58;10.98;;;;;;;13.39;100.00;101032.72;5049419;28;20055;-73
2022/10/28 01:34:34;;;;;;;17.70;11.68;;;;;;;13.40;100.00;101047.75;5048658;28;20099;-72
2022/10/28 01:37:18;;;;;;;15.60;11.23;;;;;;;13.37;100.00;101041.72;5043217;28;20041;-72
2022/10/28 01:40:18;;;;;;;17.92;10.80;;;;;;;13.44;100.00;101046.66;5041828;28;20052;-72
2022/10/28 01:43:03;;;;;;;13.85;10.48;;;;;;;13.29;100.00;101010.16;5049165;28;20155;-71
2022/10/28 01:45:39;;;;;;;20.83;11.35;;;;;;;13.45;100.00;101040.41;5047353;28;20045;-73
2022/10/28 01:48:21;;;;;;;15.27;10.20;;;;;;;13.50;100.00;101043.72;5029219;28;20059;-71
2022/10/28 01:51:01;;;;;;;17.35;10.35;;;;;;;13.39;100.00;101030.06;5045441;28;20036;-72
2022/10/28 01:53:33;;;;;;;14.73;9.73;;;;;;;13.48;100.00;101055.38;5045060;28;20049;-72
2022/10/28 01:56:04;;;;;;;19.10;11.15;;;;;;;13.45;100.00;101042.19;5046528;28;20045;-73
2022/10/28 01:58:32;;;;;;;19.60;10.32;;;;;;;13.42;100.00;101032.56;5032209;28;20074;-74
2022/10/28 02:01:03;;;;;;;18.67;10.40;;;;;;;13.33;100.00;101009.09;5037319;28;20041;-73
2022/10/28 02:03:31;;;;;;;16.67;9.70;;;;;;;13.49;100.00;101035.81;5047570;28;20072;-73
2022/10/28 02:06:01;;;;;;;15.07;10.50;;;;;;;13.47;100.00;101033.22;5046650;28;20128;-73
2022/10/28 02:08:59;;;;;;;16.52;10.38;;;;;;;13.45;100.00;101028.91;5035724;28;20057;-73
2022/10/28 02:11:58;;;;;;;16.98;9.77;;;;;;;13.45;100.00;101035.09;5044055;28;20043;-73
2022/10/28 02:14:43;;;;;;;13.05;10.07;;;;;;;13.48;100.00;101021.63;5037625;28;20045;-72
2022/10/28 02:17:22;;;;;;;14.85;9.77;;;;;;;13.51;100.00;101021.50;5040323;28;20037;-73
2022/10/28 02:19:54;;;;;;;16.05;10.43;;;;;;;13.58;100.00;101030.03;5041359;28;20049;-73
2022/10/28 02:22:52;;;;;;;14.75;10.55;;;;;;;13.66;100.00;101022.53;5047279;28;20045;-73
2022/10/28 02:25:24;;;;;;;12.38;9.80;;;;;;;13.73;100.00;101023.06;5051759;28;20055;-73
2022/10/28 02:28:01;;;;;;;16.83;10.25;;;;;;;13.79;100.00;101033.44;5038850;28;20117;-74
2022/10/28 02:30:45;;;;;;;15.55;10.00;;;;;;;13.63;100.00;100975.66;5034867;28;20036;-73
2022/10/28 02:33:18;;;;;;;15.82;10.43;;;;;;;13.90;100.00;101013.31;5038761;28;20071;-73
2022/10/28 02:35:56;;;;;;;15.32;10.20;;;;;;;13.85;100.00;101022.47;5052929;28;20048;-73
2022/10/28 02:38:40;;;;;;;16.67;10.48;;;;;;;13.85;100.00;101014.50;5041385;28;20140;-73
2022/10/28 02:41:17;;;;;;;14.40;9.45;;;;;;;13.87;100.00;101016.13;5041094;28;20135;-73
2022/10/28 02:43:46;;;;;;;14.15;8.75;;;;;;;13.86;100.00;101013.53;5045963;28;20049;-73
2022/10/28 02:46:15;;;;;;;14.45;9.90;;;;;;;13.86;100.00;100993.09;5049013;28;20052;-73
2022/10/28 02:48:53;;;;;;;14.93;9.70;;;;;;;13.91;100.00;100999.06;5037737;28;20131;-73
2022/10/28 02:51:28;;;;;;;14.32;9.85;;;;;;;13.93;100.00;101001.63;5047958;28;20055;-73
2022/10/28 02:54:14;;;;;;;14.30;9.48;;;;;;;13.92;100.00;100998.13;5057840;28;20045;-73
2022/10/28 02:56:59;;;;;;;13.77;9.77;;;;;;;13.94;100.00;100996.25;5046934;28;20728;-73
2022/10/28 02:59:28;;;;;;;16.05;10.82;;;;;;;13.96;100.00;100996.16;5039012;28;20091;-71
2022/10/28 03:01:54;;;;;;;13.52;9.23;;;;;;;14.00;100.00;100987.94;5043010;28;20129;-71
2022/10/28 03:04:21;;;;;;;16.60;9.73;;;;;;;13.94;100.00;100974.94;5045637;28;20060;-71
2022/10/28 03:06:48;;;;;;;13.98;9.55;;;;;;;14.03;100.00;100993.09;5046228;28;20041;-71
2022/10/28 03:09:14;;;;;;;12.73;8.98;;;;;;;14.01;100.00;100975.47;5036996;28;20045;-72
2022/10/28 03:11:41;;;;;;;13.57;9.38;;;;;;;13.88;100.00;100953.09;5046406;28;20045;-71
2022/10/28 03:14:08;;;;;;;16.98;9.77;;;;;;;13.96;100.00;100966.88;5053192;28;20537;-72
2022/10/28 03:16:40;;;;;;;13.90;9.55;;;;;;;13.90;100.00;100960.06;5046257;28;20397;-72
2022/10/28 03:19:06;;;;;;;17.25;9.88;;;;;;;13.85;100.00;100971.91;5041092;28;20060;-72
2022/10/28 03:21:38;;;;;;;16.40;10.07;;;;;;;13.94;100.00;100990.91;5052141;28;20053;-72
2022/10/28 03:24:04;;;;;;;18.27;9.93;;;;;;;13.92;100.00;100992.78;5048903;28;20043;-71
2022/10/28 03:26:31;;;;;;;15.45;9.40;;;;;;;13.69;100.00;100963.84;5048160;28;20048;-71
2022/10/28 03:28:58;;;;;;;14.90;9.57;;;;;;;13.82;100.00;100985.38;5044162;28;20142;-72
2022/10/28 03:31:24;;;;;;;13.27;8.90;;;;;;;13.75;100.00;100971.50;5053961;28;20052;-72
2022/10/28 03:33:51;;;;;;;15.02;9.35;;;;;;;13.78;100.00;100994.44;5055329;28;20049;-72
2022/10/28 03:36:17;;;;;;;14.45;9.30;;;;;;;13.73;100.00;101002.66;5049310;28;20151;-71
2022/10/28 03:38:44;;;;;;;18.52;9.70;;;;;;;13.50;100.00;100994.97;5041219;28;20046;-73
2022/10/28 03:41:10;;;;;;;17.05;9.73;;;;;;;13.55;100.00;101017.72;5046047;28;20100;-72
2022/10/28 03:43:37;;;;;;;14.00;8.65;;;;;;;13.42;100.00;101008.63;5051755;28;20064;-72
2022/10/28 03:46:03;;;;;;;16.15;10.00;;;;;;;13.47;100.00;101024.38;5043494;28;20088;-72
2022/10/28 03:48:30;;;;;;;14.70;9.73;;;;;;;13.49;100.00;101039.31;5047916;28;20057;-73
2022/10/28 03:50:57;;;;;;;13.38;9.98;;;;;;;13.44;100.00;101022.72;5030028;28;20042;-73
2022/10/28 03:53:23;;;;;;;14.40;9.70;;;;;;;13.51;100.00;101015.31;5039484;28;20694;-74
2022/10/28 03:55:56;;;;;;;18.63;9.30;;;;;;;13.44;100.00;100966.00;5049121;28;20083;-74
2022/10/28 03:58:23;;;;;;;15.32;9.93;;;;;;;13.63;100.00;100957.00;5056383;28;20048;-73
2022/10/28 04:00:51;;;;;;;17.77;9.95;;;;;;;13.65;100.00;100951.63;5039465;28;20131;-74
2022/10/28 04:03:19;;;;;;;15.52;9.50;;;;;;;13.67;100.00;100961.25;5049293;28;20106;-74
2022/10/28 04:05:49;;;;;;;18.17;9.93;;;;;;;13.70;100.00;100939.78;5043982;28;20049;-73
2022/10/28 04:08:17;;;;;;;15.93;9.75;;;;;;;13.79;100.00;100932.28;5037095;28;20140;-73
2022/10/28 04:10:44;;;;;;;17.45;9.60;;;;;;;13.88;100.00;100945.97;5040106;28;20045;-74
2022/10/28 04:13:14;;;;;;;18.13;10.50;;;;;;;13.95;100.00;100968.69;5047038;28;20032;-73
2022/10/28 04:15:41;;;;;;;18.00;11.48;;;;;;;13.98;100.00;101010.25;5037569;28;20041;-73
2022/10/28 04:18:08;;;;;;;20.02;11.40;;;;;;;14.01;100.00;101018.94;5040787;28;20041;-72
2022/10/28 04:20:35;;;;;;;17.02;10.93;;;;;;;14.03;100.00;100997.56;5037689;28;20060;-73
2022/10/28 04:23:02;;;;;;;16.30;10.13;;;;;;;14.00;100.00;100984.44;5055423;28;20055;-73
2022/10/28 04:25:29;;;;;;;20.05;10.50;;;;;;;13.97;100.00;100984.56;5046615;28;20373;-72
2022/10/28 04:27:56;;;;;;;18.75;11.07;;;;;;;13.96;100.00;100975.72;5040900;28;20169;-73
2022/10/28 04:30:23;;;;;;;16.40;10.55;;;;;;;14.00;100.00;100969.31;5036452;28;20056;-73
2022/10/28 04:32:50;;;;;;;14.63;10.15;;;;;;;14.04;100.00;100967.31;5048385;28;20054;-73
2022/10/28 04:35:16;;;;;;;13.93;9.65;;;;;;;13.97;100.00;100958.81;5036927;28;20048;-73
2022/10/28 04:37:43;;;;;;;15.75;9.48;;;;;;;14.03;100.00;100965.59;5054419;28;20140;-73
2022/10/28 04:40:10;;;;;;;15.65;10.27;;;;;;;13.98;100.00;100957.88;5036884;28;21287;-73
2022/10/28 04:42:36;;;;;;;14.82;9.32;;;;;;;13.85;100.00;100921.31;5042880;28;20359;-72
2022/10/28 04:45:03;;;;;;;15.20;9.98;;;;;;;14.00;100.00;100944.47;5053021;28;20076;-73
2022/10/28 04:47:30;;;;;;;12.38;9.32;;;;;;;14.00;100.00;100941.81;5043518;28;20060;-77
2022/10/28 04:49:56;;;;;;;12.82;9.63;;;;;;;13.91;100.00;100920.97;5038037;28;20050;-72
2022/10/28 04:52:23;;;;;;;15.02;9.55;;;;;;;14.00;100.00;100941.81;5048400;28;20068;-73
2022/10/28 04:54:50;;;;;;;14.52;9.40;;;;;;;14.04;100.00;100940.69;5048423;28;20088;-73
2022/10/28 04:57:17;;;;;;;14.85;9.32;;;;;;;13.98;100.00;100935.72;5044191;28;20106;-75
2022/10/28 04:59:44;;;;;;;13.98;9.55;;;;;;;14.05;100.00;100942.41;5038356;28;20049;-73
2022/10/28 05:02:11;;;;;;;16.52;9.80;;;;;;;14.05;100.00;100929.97;5046828;28;20047;-74
2022/10/28 05:04:38;;;;;;;15.52;10.52;;;;;;;13.95;100.00;100915.44;5048721;28;20143;-74
2022/10/28 05:07:04;;;;;;;17.25;11.10;;;;;;;14.00;100.00;100941.81;5048882;28;20050;-74
2022/10/28 05:09:31;;;;;;;19.83;11.25;;;;;;;13.96;100.00;100948.25;5036036;28;20049;-73
2022/10/28 05:11:58;;;;;;;20.85;11.85;;;;;;;13.91;100.00;100937.81;5044360;28;20099;-73
2022/10/28 05:14:25;;;;;;;16.40;10.48;;;;;;;13.93;100.00;100945.72;5054546;28;20143;-74
2022/10/28 05:16:51;;;;;;;17.08;11.48;;;;;;;13.91;100.00;100942.28;5049791;28;20087;-74
2022/10/28 05:19:18;;;;;;;24.35;12.88;;;;;;;13.92;100.00;100941.34;5044330;28;20080;-72
2022/10/28 05:21:44;;;;;;;16.42;11.50;;;;;;;13.88;100.00;100931.78;5035827;28;20087;-72
2022/10/28 05:24:11;;;;;;;17.00;10.85;;;;;;;13.89;100.00;100944.16;5042964;28;20076;-73
2022/10/28 05:26:37;;;;;;;17.98;10.38;;;;;;;13.84;100.00;100941.75;5046852;28;20053;-73
2022/10/28 05:29:04;;;;;;;16.30;10.35;;;;;;;13.84;100.00;100938.22;5040939;28;20043;-72
2022/10/28 05:31:31;;;;;;;16.40;10.23;;;;;;;13.79;100.00;100941.13;5036670;28;20049;-72
2022/10/28 05:33:57;;;;;;;16.40;10.90;;;;;;;13.79;100.00;100935.78;5047284;28;20044;-73
2022/10/28 05:36:25;;;;;;;15.88;10.90;;;;;;;13.77;100.00;100936.81;5049293;28;20136;-74
2022/10/28 05:38:52;;;;;;;15.63;10.45;;;;;;;13.73;100.00;100940.56;5050917;28;20420;-73
2022/10/28 05:41:18;;;;;;;17.10;11.05;;;;;;;13.67;100.00;100936.44;5037558;28;20401;-74
2022/10/28 05:43:47;;;;;;;18.40;11.65;;;;;;;13.63;100.00;100932.19;5050678;28;20055;-72
2022/10/28 05:46:14;;;;;;;19.38;11.55;;;;;;;13.58;100.00;100924.44;5039400;28;20064;-72
2022/10/28 05:48:40;;;;;;;16.75;10.43;;;;;;;13.47;100.00;100920.63;5043157;28;20050;-71
2022/10/28 05:51:07;;;;;;;16.20;11.23;;;;;;;13.46;100.00;100927.72;5035810;28;20051;-73
2022/10/28 05:53:33;;;;;;;14.90;10.68;;;;;;;13.36;100.00;100913.19;5058287;28;20130;-72
2022/10/28 05:56:00;;;;;;;19.15;11.27;;;;;;;13.46;100.00;100932.19;5041054;28;20033;-75
2022/10/28 05:58:27;;;;;;;17.65;10.10;;;;;;;13.43;100.00;100935.84;5044817;28;20051;-72
2022/10/28 06:00:53;;;;;;;16.67;11.18;;;;;;;13.44;100.00;100942.91;5030305;28;20402;-74
2022/10/28 06:03:20;;;;;;;21.27;11.45;;;;;;;13.31;100.00;100932.03;5056066;28;20049;-75
2022/10/28 06:05:46;;;;;;;18.77;11.35;;;;;;;13.40;100.00;100951.97;5053104;28;20048;-76
2022/10/28 06:08:13;;;;;;;17.75;11.32;;;;;;;13.41;100.00;100948.38;5042658;28;20052;-73
2022/10/28 06:10:41;;;;;;;20.88;11.23;;;;;;;13.26;100.00;100923.41;5037174;28;20049;-74
2022/10/28 06:13:08;;;;;;;16.27;11.55;;;;;;;13.40;100.00;100951.97;5044230;28;20045;-74
2022/10/28 06:15:35;;;;;;;16.67;10.75;;;;;;;13.39;100.00;100960.03;5055896;28;20049;-73
2022/10/28 06:18:02;;;;;;;16.10;11.10;;;;;;;13.36;100.00;100950.41;5055147;28;20163;-74
2022/10/28 06:20:28;;;;;;;18.33;12.25;;;;;;;13.39;100.00;100960.03;5035102;28;20478;-75
2022/10/28 06:22:56;;;;;;;16.58;11.43;;;;;;;13.35;100.00;100948.69;5054192;28;20053;-76
2022/10/28 06:25:25;;;;;;;18.00;11.15;;;;;;;13.41;100.00;100958.16;5048999;28;20119;-74
2022/10/28 06:27:53;;;;;;;18.75;11.68;;;;;;;13.33;100.00;100931.94;5054305;28;20131;-74
2022/10/28 06:30:21;;;;;;;22.00;11.98;;;;;;;13.47;100.00;100945.41;5031113;28;20041;-73
2022/10/28 06:32:47;;;;;;;17.52;10.02;;;;;;;13.58;100.00;100958.16;5057793;28;20102;-74
2022/10/28 06:35:14;;;;;;;19.73;13.45;;;;;;;13.47;100.00;100925.94;5049624;28;20094;-74
2022/10/28 06:37:41;;;;;;;17.42;11.63;;;;;;;13.67;100.00;100950.59;5052053;28;20056;-75
2022/10/28 06:40:09;;;;;;;15.10;11.18;;;;;;;13.76;100.00;100951.06;5032192;28;20476;-74
2022/10/28 06:42:36;;;;;;;18.80;10.65;;;;;;;13.81;100.00;100959.69;5041762;28;20073;-73
2022/10/28 06:45:03;;;;;;;14.68;10.40;;;;;;;13.87;100.00;100959.34;5038500;28;20511;-73
2022/10/28 06:47:31;;;;;;;20.67;12.73;;;;;;;13.90;100.00;100959.19;5046079;28;20119;-73
2022/10/28 06:49:58;;;;;;;20.88;12.55;;;;;;;14.00;100.00;100971.09;5029380;28;20097;-72
2022/10/28 06:52:25;;;;;;;20.23;11.93;;;;;;;14.05;100.00;100966.38;5042610;28;20142;-74
2022/10/28 06:54:51;;;;;;;15.88;10.88;;;;;;;14.17;100.00;100976.38;5045834;28;20118;-75
2022/10/28 06:57:18;;;;;;;16.98;10.52;;;;;;;14.26;100.00;100975.06;5039285;28;20090;-73
2022/10/28 06:59:44;;;;;;;15.18;10.65;;;;;;;14.28;100.00;100963.38;5039911;28;20132;-73
2022/10/28 07:02:11;;;;;;;18.20;10.70;;;;;;;14.27;100.00;100948.34;5045904;28;20080;-74
2022/10/28 07:04:38;;;;;;;20.05;12.75;;;;;;;14.44;100.00;100974.13;5046237;28;20057;-73
2022/10/28 07:07:05;;;;;;;18.15;10.95;;;;;;;14.48;100.00;100965.00;5051076;28;20044;-72
2022/10/28 07:09:32;;;;;;;19.02;11.68;;;;;;;14.54;100.00;100971.81;5040953;28;20553;-74
2022/10/28 07:11:59;;;;;;;14.50;10.00;;;;;;;14.53;100.00;100968.28;5050310;28;20040;-74
2022/10/28 07:14:33;;;;;;;18.17;10.85;;;;;;;14.55;100.00;100960.19;5052717;28;20072;-75
2022/10/28 07:17:00;;;;;;;19.65;11.43;;;;;;;14.56;100.00;100969.91;5044224;28;20127;-74
2022/10/28 07:19:27;;;;;;;18.10;11.20;;;;;;;14.56;100.00;100973.44;5049842;28;20158;-73
2022/10/28 07:21:53;;;;;;;18.48;11.60;;;;;;;14.53;100.00;100972.75;5038677;28;20124;-74
2022/10/28 07:24:20;;;;;;;24.90;12.45;;;;;;;14.54;100.00;100979.78;5049551;28;20160;-74
2022/10/28 07:26:48;;;;;;;26.80;13.23;;;;;;;14.59;100.00;100991.94;5053003;28;20106;-73
2022/10/28 07:29:20;;;;;;;26.60;13.15;;;;;;;14.63;100.00;100998.84;5039236;28;20461;-73
2022/10/28 07:31:47;;;;;;;18.13;11.52;;;;;;;14.65;100.00;100985.41;5037385;28;20064;-73
2022/10/28 07:34:14;;;;;;;20.73;10.80;;;;;;;14.58;100.00;100963.56;5045102;28;20060;-73
2022/10/28 07:36:40;;;;;;;17.15;10.23;;;;;;;14.84;100.00;100994.13;5050655;28;20119;-74
2022/10/28 07:39:08;;;;;;;18.35;10.25;;;;;;;14.94;100.00;100995.34;5047999;28;20044;-73
2022/10/28 07:41:36;;;;;;;17.50;10.43;;;;;;;15.00;100.00;100997.66;5040605;28;20053;-74
2022/10/28 07:44:02;;;;;;;19.00;10.13;;;;;;;15.06;100.00;100985.78;5055680;28;20072;-73
2022/10/28 07:46:29;;;;;;;17.33;9.93;;;;;;;15.16;100.00;100989.66;5046285;28;20053;-73
2022/10/28 07:48:56;;;;;;;23.88;10.98;;;;;;;15.23;100.00;100992.84;5051905;28;20119;-74
2022/10/28 07:51:23;;;;;;;15.02;10.30;;;;;;;15.23;100.00;100992.84;5040168;28;20044;-73
2022/10/28 07:53:49;;;;;;;18.65;10.13;;;;;;;15.33;100.00;100997.56;5044656;28;20056;-73
2022/10/28 07:56:17;;;;;;;15.43;9.57;;;;;;;15.46;100.00;100992.38;5043000;28;20045;-74
2022/10/28 07:58:44;;;;;;;16.65;9.70;;;;;;;15.51;100.00;100987.66;5050384;28;20053;-74
2022/10/28 08:01:13;;;;;;;19.13;11.25;;;;;;;15.67;100.00;100991.16;5035724;28;20059;-74
2022/10/28 08:03:40;;;;;;;16.35;9.80;;;;;;;15.65;100.00;100971.72;5045324;28;20559;-74
2022/10/28 08:06:18;;;;;;;15.20;10.18;;;;;;;15.84;100.00;100986.66;5041761;28;20132;-73
2022/10/28 08:08:46;;;;;;;15.95;10.23;;;;;;;15.84;100.00;101000.88;5037247;28;20048;-74
2022/10/28 08:11:26;;;;;;;18.25;10.85;;;;;;;15.84;100.00;100992.84;5032885;28;20159;-74
2022/10/28 08:13:54;;;;;;;18.27;11.20;;;;;;;15.86;100.00;100990.09;5032048;28;20055;-74
2022/10/28 08:16:21;;;;;;;17.17;11.10;;;;;;;15.91;100.00;101001.34;5033908;28;20925;-74
2022/10/28 08:18:48;;;;;;;22.08;11.13;;;;;;;15.91;100.00;100999.53;5033890;28;20717;-74
2022/10/28 08:21:15;;;;;;;19.75;11.65;;;;;;;15.97;100.00;100998.31;5029293;28;20121;-73
2022/10/28 08:23:45;;;;;;;18.60;11.85;;;;;;;15.93;100.00;100991.44;5034839;28;20045;-73
2022/10/28 08:26:15;;;;;;;26.55;13.10;;;;;;;15.97;100.00;100982.28;5040454;28;20500;-73
2022/10/28 08:28:42;;;;;;;27.42;12.43;;;;;;;16.05;100.00;100991.59;5047178;28;20144;-73
2022/10/28 08:31:11;;;;;;;20.50;11.32;;;;;;;16.11;100.00;100985.84;5031467;28;20055;-75
2022/10/28 08:33:41;;;;;;;21.52;11.38;;;;;;;16.16;100.00;100974.88;5037788;28;20060;-75
2022/10/28 08:36:10;;;;;;;29.10;14.27;;;;;;;16.32;100.00;100994.38;5040178;28;20037;-73
2022/10/28 08:38:37;;;;;;;21.37;13.27;;;;;;;16.39;100.00;100993.03;5045447;28;20055;-73
2022/10/28 08:41:35;;;;;;;19.58;11.70;;;;;;;16.49;100.00;100986.19;5037349;28;20045;-73
2022/10/28 08:44:33;;;;;;;27.67;13.27;;;;;;;16.44;100.00;100972.22;5046230;28;20084;-75
2022/10/28 08:46:59;;;;;;;20.50;12.50;;;;;;;16.51;100.00;100978.06;5041696;28;20044;-73
2022/10/28 08:49:29;;;;;;;20.83;13.18;;;;;;;16.55;100.00;100994.75;5049120;28;20068;-73
2022/10/28 08:52:02;;;;;;;22.85;13.38;;;;;;;16.51;100.00;100995.94;5034355;28;20103;-74
2022/10/28 08:54:49;;;;;;;23.80;13.93;;;;;;;16.51;100.00;100990.56;5042767;28;20048;-73
2022/10/28 08:57:22;;;;;;;24.10;14.48;;;;;;;16.48;100.00;100994.28;5037499;28;20049;-74
2022/10/28 08:59:52;;;;;;;27.23;15.00;;;;;;;16.54;100.00;101001.91;5044811;28;20102;-74
2022/10/28 09:02:24;;;;;;;26.05;14.27;;;;;;;16.53;100.00;101002.03;5034309;28;20132;-76
2022/10/28 09:05:04;;;;;;;22.52;12.95;;;;;;;16.57;100.00;100987.50;5049852;28;20047;-75
2022/10/28 09:07:35;;;;;;;28.33;14.20;;;;;;;16.61;100.00;100989.91;5050591;28;20078;-74
2022/10/28 09:10:03;;;;;;;;;;;;;;;16.71;100.00;100998.22;5036673;28;20057;-74
2022/10/28 09:13:18;;;;;;;24.30;13.05;;;;;;;16.78;100.00;100999.56;5045796;28;20392;-75
2022/10/28 09:16:11;;;;;;;26.10;13.20;;;;;;;16.84;100.00;100999.19;5035698;28;20080;-74
2022/10/28 09:18:51;;;;;;;26.15;12.35;;;;;;;16.94;100.00;101000.31;5053083;28;20488;-74
2022/10/28 09:21:35;;;;;;;23.00;12.85;;;;;;;17.06;100.00;101002.19;5040107;28;20566;-75
2022/10/28 09:24:17;;;;;;;19.83;11.43;;;;;;;17.05;100.00;101002.28;5047130;28;20087;-75
2022/10/28 09:26:48;;;;;;;22.50;12.57;;;;;;;17.12;100.00;100991.13;5045354;28;20140;-75
2022/10/28 09:29:49;;;;;;;23.08;10.90;;;;;;;17.40;100.00;101000.00;5046618;28;20080;-73
2022/10/28 09:32:46;;;;;;;21.75;10.57;;;;;;;17.66;100.00;100993.81;5036612;28;20059;-72
2022/10/28 09:35:16;;;;;;;18.63;10.13;;;;;;;17.84;100.00;101005.97;5043146;28;20053;-74
2022/10/28 09:37:49;;;;;;;18.92;10.95;;;;;;;17.74;100.00;100996.84;5034246;28;20049;-74
2022/10/28 09:40:24;;;;;;;20.88;10.32;;;;;;;17.80;100.00;100992.88;5040854;28;20094;-74
2022/10/28 09:43:08;;;;;;;16.95;9.63;;;;;;;18.15;100.00;100998.53;5040729;28;20516;-75
2022/10/28 09:45:39;;;;;;;20.35;11.20;;;;;;;18.23;100.00;100969.38;5038749;28;20055;-73
2022/10/28 09:48:13;;;;;;;;;;;;;;;18.48;100.00;100995.31;5043211;28;20041;-71
2022/10/28 09:50:40;;;;;;;17.48;10.20;;;;;;;18.56;100.00;100984.94;5043306;28;20027;-73
2022/10/28 09:53:18;;;;;;;15.95;9.25;;;;;;;18.74;100.00;100991.66;5039732;28;20045;-74
2022/10/28 09:55:45;;;;;;;22.05;9.45;;;;;;;18.96;100.00;100991.00;5048376;28;20163;-74
2022/10/28 09:58:12;;;;;;;18.90;9.52;;;;;;;19.15;100.00;100982.47;5037352;28;20561;-74
2022/10/28 10:00:39;;;;;;;18.48;10.20;;;;;;;19.22;96.90;100986.41;5032466;28;20265;-75
2022/10/28 10:03:06;;;;;;;21.20;9.10;;;;;;;18.73;94.20;100983.75;5038369;28;20040;-73
2022/10/28 10:05:39;;;;;;;18.23;9.65;;;;;;;18.41;97.02;100975.28;5037835;28;20055;-75
2022/10/28 10:08:09;;;;;;;16.58;9.07;;;;;;;18.47;99.54;100996.28;5039596;28;20120;-75
2022/10/28 10:10:50;;;;;;;13.05;8.27;;;;;;;18.63;98.68;100993.41;5030405;28;20193;-75
2022/10/28 10:13:22;;;;;;;15.02;8.57;;;;;;;18.81;96.50;100998.31;5036636;28;20045;-75
2022/10/28 10:16:10;;;;;;;15.35;8.20;;;;;;;18.97;96.89;100983.81;5037546;28;20080;-75
2022/10/28 10:18:41;;;;;;;16.08;8.70;;;;;;;19.20;93.97;100989.19;5041120;28;20057;-76
2022/10/28 10:21:07;;;;;;;15.45;7.63;;;;;;;19.38;92.92;100989.66;5045792;28;20064;-75
2022/10/28 10:23:36;;;;;;;13.18;8.32;;;;;;;19.58;92.26;100993.59;5053478;28;20134;-73
2022/10/28 10:26:08;;;;;;;12.75;6.65;;;;;;;19.54;88.69;100957.19;5045808;28;20063;-76
2022/10/28 10:28:44;;;;;;;9.55;5.68;;;;;;;19.78;85.38;100984.88;5040780;28;20738;-73
2022/10/28 10:31:19;;;;;;;16.88;6.45;;;;;;;19.86;82.91;100981.59;5036082;28;20544;-74
2022/10/28 10:33:52;;;;;;;12.80;6.25;;;;;;;19.96;83.08;100988.88;5040826;28;21578;-72
2022/10/28 10:36:22;;;;;;;15.23;6.03;;;;;;;20.06;82.64;100982.75;5044080;28;20067;-73
2022/10/28 10:38:54;;;;;;;;;;;;;;;20.22;79.63;100969.84;5048658;28;20457;-72
2022/10/28 10:41:33;;;;;;;13.80;4.65;;;;;;;20.39;79.90;100966.72;5032801;28;19928;-72
2022/10/28 10:44:00;;;;;;;8.20;4.32;;;;;;;20.48;79.10;100949.00;5042046;28;20254;-72
2022/10/28 10:46:27;;;;;;;10.93;4.57;;;;;;;20.70;78.43;100965.13;5037791;28;20052;-72
2022/10/28 10:49:13;;;;;;;12.18;4.82;;;;;;;20.59;75.87;100938.25;5035387;28;20052;-71
2022/10/28 10:51:52;;;;;;;10.48;4.68;;;;;;;20.66;75.00;100961.84;5028910;28;20144;-71
2022/10/28 10:54:19;;;;;;;14.80;4.78;;;;;;;20.65;75.41;100959.25;5038338;28;20099;-72
2022/10/28 10:56:46;;;;;;;15.48;4.53;;;;;;;20.55;75.01;100955.59;5030068;28;20055;-73
2022/10/28 10:59:27;;;;;;;11.65;4.22;;;;;;;20.48;75.07;100957.06;5036000;28;20157;-71
2022/10/28 11:01:56;;;;;;;14.10;4.72;;;;;;;20.45;74.16;100955.50;5036201;28;21002;-71
2022/10/28 11:04:26;;;;;;;11.35;4.07;;;;;;;20.47;75.12;100931.13;5034094;28;20140;-71
2022/10/28 11:06:55;;;;;;;14.13;5.20;;;;;;;20.70;75.76;100954.38;5033468;28;20049;-71
2022/10/28 11:09:30;;;;;;;13.52;4.65;;;;;;;20.66;74.27;100958.28;5034942;28;20491;-71
2022/10/28 11:11:57;;;;;;;7.28;4.10;;;;;;;20.54;74.49;100951.19;5034112;28;20049;-71
2022/10/28 11:14:29;;;;;;;11.98;4.93;;;;;;;20.39;75.54;100949.72;5042614;28;20045;-72
2022/10/28 11:17:01;;;;;;;12.75;4.80;;;;;;;20.39;76.69;100952.41;5045963;28;20053;-71
2022/10/28 11:19:32;;;;;;;11.43;4.78;;;;;;;20.40;75.06;100920.03;5044752;28;20643;-73
2022/10/28 11:22:23;;;;;;;8.73;4.20;;;;;;;20.73;74.47;100940.69;5043118;28;20051;-71
2022/10/28 11:25:27;;;;;;;13.30;4.28;;;;;;;20.83;74.16;100909.34;5045454;28;20477;-72